Time;durP1;ratioP1;P1;durP2;ratioP2;P2;SDS_P1;SDS_P2;PMS_P1;PMS_P2;Temp;Humidity;BMP_temperature;BMP_pressure;BME280_temperature;BME280_humidity;BME280_pressure;Samples;Min_cycle;Max_cycle;Signal;HPM_P1;HPM_P2
2022/06/10 00:00:04;;;;;;;21.33;10.27;;;;;;;;;;5011767;28;20040;-67
2022/06/10 00:02:30;;;;;;;27.33;10.65;;;;;;;;;;5029357;28;20045;-68
2022/06/10 00:04:56;;;;;;;19.27;11.02;;;;;;;;;;5028978;28;20037;-68
2022/06/10 00:07:24;;;;;;;17.00;10.02;;;;;;;;;;5029314;28;20045;-68
2022/06/10 00:09:50;;;;;;;21.48;11.27;;;;;;;;;;5011829;28;20072;-69
2022/06/10 00:12:16;;;;;;;22.65;10.70;;;;;;;;;;5030144;28;20085;-69
2022/06/10 00:14:42;;;;;;;24.88;11.38;;;;;;;;;;5028098;28;20049;-68
2022/06/10 00:17:08;;;;;;;20.02;11.52;;;;;;;;;;5029192;28;20040;-68
2022/06/10 00:19:34;;;;;;;27.73;11.77;;;;;;;;;;5029062;28;20050;-68
2022/06/10 00:22:01;;;;;;;17.48;11.27;;;;;;;;;;5029138;28;20045;-68
2022/06/10 00:24:27;;;;;;;23.30;11.40;;;;;;;;;;5029076;28;20080;-69
2022/06/10 00:26:53;;;;;;;21.27;12.27;;;;;;;;;;5011268;28;20073;-68
2022/06/10 00:29:19;;;;;;;27.10;12.20;;;;;;;;;;5028796;28;20505;-68
2022/06/10 00:31:45;;;;;;;23.58;12.50;;;;;;;;;;5028931;28;20052;-70
2022/06/10 00:34:11;;;;;;;36.22;12.30;;;;;;;;;;5028950;28;20461;-67
2022/06/10 00:36:37;;;;;;;18.23;12.55;;;;;;;;;;5029014;28;20064;-69
2022/06/10 00:39:03;;;;;;;26.30;12.27;;;;;;;;;;5028644;28;20498;-69
2022/06/10 00:41:29;;;;;;;18.52;12.10;;;;;;;;;;5029012;28;20124;-68
2022/06/10 00:43:55;;;;;;;28.40;12.63;;;;;;;;;;5028687;28;20417;-68
2022/06/10 00:46:28;;;;;;;21.90;11.95;;;;;;;;;;5029067;28;20111;-68
2022/06/10 00:49:00;;;;;;;25.55;11.95;;;;;;;;;;5029001;28;20426;-69
2022/06/10 00:51:26;;;;;;;24.00;11.65;;;;;;;;;;5029194;28;20052;-68
2022/06/10 00:54:01;;;;;;;26.75;11.23;;;;;;;;;;5028470;28;20062;-69
2022/06/10 00:56:27;;;;;;;24.05;12.13;;;;;;;;;;5029024;28;20037;-70
2022/06/10 00:58:55;;;;;;;21.27;11.55;;;;;;;;;;5030945;28;20060;-69
2022/06/10 01:01:22;;;;;;;15.30;12.15;;;;;;;;;;5032427;28;20472;-69
2022/06/10 01:03:48;;;;;;;29.58;12.50;;;;;;;;;;5031748;28;20041;-68
2022/06/10 01:06:14;;;;;;;22.10;11.60;;;;;;;;;;5014769;28;20112;-69
2022/06/10 01:08:40;;;;;;;23.83;12.50;;;;;;;;;;5014483;28;20488;-69
2022/06/10 01:11:09;;;;;;;25.60;12.18;;;;;;;;;;5014397;28;20052;-70
2022/06/10 01:13:50;;;;;;;20.20;11.23;;;;;;;;;;5031947;28;20057;-69
2022/06/10 01:16:49;;;;;;;18.75;12.15;;;;;;;;;;5032151;28;20102;-68
2022/06/10 01:19:15;;;;;;;24.15;13.35;;;;;;;;;;4981787;28;20049;-70
2022/06/10 01:21:55;;;;;;;16.52;11.80;;;;;;;;;;5031938;28;20106;-70
2022/06/10 01:24:37;;;;;;;19.05;11.93;;;;;;;;;;5031932;28;20079;-69
2022/06/10 01:30:05;;;;;;;21.63;11.90;;;;;;;;;;5031491;28;20052;-71
2022/06/10 01:32:32;;;;;;;30.00;12.98;;;;;;;;;;5031714;28;20053;-68
2022/06/10 01:35:02;;;;;;;22.85;12.50;;;;;;;;;;5013723;28;20089;-69
2022/06/10 01:37:33;;;;;;;30.10;13.47;;;;;;;;;;5031717;28;20041;-70
2022/06/10 01:40:04;;;;;;;19.73;12.52;;;;;;;;;;5031319;28;20315;-70
2022/06/10 01:42:29;;;;;;;;;;;;;;;;;;5014515;28;20087;-69
2022/06/10 01:44:59;;;;;;;34.88;14.05;;;;;;;;;;5031011;28;20381;-70
2022/06/10 01:47:37;;;;;;;37.73;13.30;;;;;;;;;;5014017;28;20034;-69
2022/06/10 01:50:09;;;;;;;23.42;12.57;;;;;;;;;;5031261;28;20144;-70
2022/06/10 01:52:42;;;;;;;32.20;12.18;;;;;;;;;;5027900;28;20139;-69
2022/06/10 01:55:13;;;;;;;18.83;11.32;;;;;;;;;;5005782;28;20060;-69
2022/06/10 01:57:42;;;;;;;22.75;11.95;;;;;;;;;;5010177;28;20046;-69
2022/06/10 02:00:15;;;;;;;18.13;11.13;;;;;;;;;;5011175;28;20041;-69
2022/06/10 02:02:43;;;;;;;16.15;10.38;;;;;;;;;;5011335;28;20055;-69
2022/06/10 02:05:14;;;;;;;26.73;11.35;;;;;;;;;;4992744;28;20042;-70
2022/06/10 02:07:39;;;;;;;;;;;;;;;;;;5013968;28;20060;-69
2022/06/10 02:10:09;;;;;;;20.40;11.70;;;;;;;;;;5030120;28;19913;-70
2022/06/10 02:12:37;;;;;;;18.33;10.60;;;;;;;;;;5030843;28;20440;-68
2022/06/10 02:15:05;;;;;;;26.40;10.75;;;;;;;;;;5012940;28;20497;-69
2022/06/10 02:17:36;;;;;;;24.90;12.13;;;;;;;;;;5030964;28;20136;-69
2022/06/10 02:20:01;;;;;;;;;;;;;;;;;;4997184;28;20582;-69
2022/06/10 02:22:32;;;;;;;19.05;10.88;;;;;;;;;;5031005;28;19913;-69
2022/06/10 02:24:58;;;;;;;16.25;11.88;;;;;;;;;;5013003;28;20045;-68
2022/06/10 02:27:26;;;;;;;26.10;11.77;;;;;;;;;;5013328;28;20066;-70
2022/06/10 02:30:04;;;;;;;17.88;10.57;;;;;;;;;;5012961;28;20115;-69
2022/06/10 02:32:30;;;;;;;18.38;11.98;;;;;;;;;;5013099;28;20060;-69
2022/06/10 02:34:57;;;;;;;19.77;11.80;;;;;;;;;;5030363;28;20041;-71
2022/06/10 02:37:32;;;;;;;21.42;10.20;;;;;;;;;;5013397;28;20041;-69
2022/06/10 02:40:15;;;;;;;16.85;11.43;;;;;;;;;;5012741;28;20073;-70
2022/06/10 02:42:42;;;;;;;22.08;12.60;;;;;;;;;;5030547;28;20041;-68
2022/06/10 02:45:11;;;;;;;24.02;13.35;;;;;;;;;;5028690;28;20548;-70
2022/06/10 02:47:40;;;;;;;16.38;13.05;;;;;;;;;;5028508;28;20041;-69
2022/06/10 02:50:07;;;;;;;29.25;13.48;;;;;;;;;;5028221;28;20095;-69
2022/06/10 02:52:34;;;;;;;44.05;25.58;;;;;;;;;;5028390;28;20057;-68
2022/06/10 02:54:59;;;;;;;26.05;13.02;;;;;;;;;;5040687;28;20057;-69
2022/06/10 03:01:11;;;;;;;25.90;13.15;;;;;;;;;;5030376;28;20059;-69
2022/06/10 03:03:04;;;;;;;22.80;12.93;;;;;;;;;;5032828;28;20136;-70
2022/06/10 03:05:31;;;;;;;16.40;12.60;;;;;;;;;;5048069;28;20043;-70
2022/06/10 03:08:01;;;;;;;23.17;14.18;;;;;;;;;;5030795;28;20505;-71
2022/06/10 03:10:27;;;;;;;;;;;;;;;;;;5048912;28;20041;-69
2022/06/10 03:13:12;;;;;;;22.73;12.82;;;;;;;;;;5030012;28;20415;-68
2022/06/10 03:15:47;;;;;;;19.75;12.40;;;;;;;;;;5047830;28;20064;-70
2022/06/10 03:18:19;;;;;;;15.65;12.13;;;;;;;;;;5047755;28;20059;-70
2022/06/10 03:20:58;;;;;;;13.98;12.60;;;;;;;;;;5029782;28;20103;-70
2022/06/10 03:23:27;;;;;;;20.53;12.63;;;;;;;;;;5029926;28;20052;-69
2022/06/10 03:26:01;;;;;;;18.30;11.65;;;;;;;;;;5047756;28;20283;-70
2022/06/10 03:28:30;;;;;;;25.08;11.30;;;;;;;;;;5030036;28;20127;-69
2022/06/10 03:30:57;;;;;;;15.50;11.13;;;;;;;;;;5047705;28;20067;-70
2022/06/10 03:33:34;;;;;;;21.63;11.23;;;;;;;;;;5029892;28;20429;-70
2022/06/10 03:36:00;;;;;;;22.50;11.55;;;;;;;;;;5029945;28;20522;-69
2022/06/10 03:38:26;;;;;;;12.80;11.23;;;;;;;;;;5047606;28;20171;-69
2022/06/10 03:40:53;;;;;;;15.45;10.43;;;;;;;;;;5029760;28;20598;-69
2022/06/10 03:43:19;;;;;;;12.65;10.73;;;;;;;;;;5013112;28;20142;-70
2022/06/10 03:45:46;;;;;;;14.05;10.73;;;;;;;;;;5047561;28;20413;-70
2022/06/10 03:48:16;;;;;;;14.77;11.13;;;;;;;;;;5029650;28;20626;-70
2022/06/10 03:50:43;;;;;;;11.70;10.57;;;;;;;;;;5047569;28;20471;-70
2022/06/10 03:53:16;;;;;;;14.38;10.38;;;;;;;;;;5047150;28;20080;-69
2022/06/10 03:55:42;;;;;;;11.10;9.90;;;;;;;;;;5047169;28;20053;-71
2022/06/10 03:58:09;;;;;;;9.35;8.10;;;;;;;;;;5047375;28;20056;-69
2022/06/10 04:00:35;;;;;;;9.00;8.27;;;;;;;;;;5029518;28;20063;-69
2022/06/10 04:03:01;;;;;;;9.40;8.50;;;;;;;;;;5047233;28;20045;-69
2022/06/10 04:05:27;;;;;;;13.35;8.00;;;;;;;;;;5047251;28;20459;-70
2022/06/10 04:07:52;;;;;;;8.90;7.90;;;;;;;;;;5029240;28;20053;-69
2022/06/10 04:10:20;;;;;;;9.93;8.43;;;;;;;;;;5046880;28;20068;-69
2022/06/10 04:12:46;;;;;;;16.10;7.47;;;;;;;;;;5029125;28;20529;-70
2022/06/10 04:15:15;;;;;;;9.45;7.60;;;;;;;;;;5029180;28;20037;-69
2022/06/10 04:17:45;;;;;;;6.60;5.90;;;;;;;;;;5029731;28;20067;-70
2022/06/10 04:20:12;;;;;;;7.97;5.90;;;;;;;;;;5047222;28;20099;-69
2022/06/10 04:22:38;;;;;;;6.72;5.22;;;;;;;;;;5029586;28;20037;-68
2022/06/10 04:25:04;;;;;;;6.60;6.00;;;;;;;;;;5029535;28;20040;-70
2022/06/10 04:27:30;;;;;;;9.70;6.25;;;;;;;;;;5047461;28;20040;-71
2022/06/10 04:29:57;;;;;;;7.03;5.88;;;;;;;;;;5029731;28;20045;-69
2022/06/10 04:32:23;;;;;;;11.25;5.75;;;;;;;;;;5030030;28;20041;-69
2022/06/10 04:34:49;;;;;;;12.85;5.93;;;;;;;;;;5051000;28;20067;-69
2022/06/10 04:37:15;;;;;;;7.60;6.03;;;;;;;;;;5051028;28;20572;-72
2022/06/10 04:39:41;;;;;;;9.35;5.80;;;;;;;;;;5051246;28;20052;-69
2022/06/10 04:42:08;;;;;;;6.88;5.80;;;;;;;;;;5050778;28;20044;-71
2022/06/10 04:44:34;;;;;;;8.85;6.45;;;;;;;;;;5051081;28;20056;-70
2022/06/10 04:47:00;;;;;;;6.70;6.18;;;;;;;;;;5050884;28;20041;-69
2022/06/10 04:49:26;;;;;;;7.00;6.38;;;;;;;;;;5050822;28;20413;-71
2022/06/10 04:51:52;;;;;;;7.45;6.57;;;;;;;;;;5032643;28;20547;-70
2022/06/10 04:54:18;;;;;;;10.52;6.75;;;;;;;;;;5050205;28;20056;-70
2022/06/10 04:56:43;;;;;;;6.45;5.90;;;;;;;;;;5050481;28;20041;-70
2022/06/10 04:59:09;;;;;;;7.78;6.05;;;;;;;;;;5050432;28;20043;-69
2022/06/10 05:01:35;;;;;;;8.43;6.05;;;;;;;;;;5050570;28;20053;-69
2022/06/10 05:04:01;;;;;;;8.85;6.88;;;;;;;;;;5049926;28;20037;-69
2022/06/10 05:06:27;;;;;;;7.18;6.47;;;;;;;;;;5050497;28;20049;-70
2022/06/10 05:08:53;;;;;;;7.00;6.40;;;;;;;;;;5032310;28;20047;-69
2022/06/10 05:11:19;;;;;;;7.30;6.80;;;;;;;;;;5049949;28;20143;-70
2022/06/10 05:13:45;;;;;;;6.70;6.18;;;;;;;;;;5032087;28;20053;-69
2022/06/10 05:16:11;;;;;;;6.43;5.93;;;;;;;;;;5049941;28;20102;-70
2022/06/10 05:18:38;;;;;;;7.38;6.63;;;;;;;;;;5050050;28;20056;-70
2022/06/10 05:21:04;;;;;;;7.70;7.03;;;;;;;;;;5049792;28;20067;-70
2022/06/10 05:23:30;;;;;;;7.63;7.03;;;;;;;;;;5050061;28;20075;-69
2022/06/10 05:25:56;;;;;;;9.75;6.65;;;;;;;;;;5049621;28;20076;-70
2022/06/10 05:28:22;;;;;;;7.25;6.53;;;;;;;;;;5032088;28;20067;-71
2022/06/10 05:30:48;;;;;;;6.88;6.30;;;;;;;;;;5015451;28;20508;-70
2022/06/10 05:33:13;;;;;;;7.57;6.95;;;;;;;;;;5049544;28;20057;-71
2022/06/10 05:35:40;;;;;;;7.07;6.57;;;;;;;;;;5031869;28;20045;-69
2022/06/10 05:38:06;;;;;;;7.68;6.50;;;;;;;;;;5049547;28;20174;-70
2022/06/10 05:40:32;;;;;;;8.23;6.40;;;;;;;;;;5049433;28;20068;-71
2022/06/10 05:42:58;;;;;;;7.25;6.10;;;;;;;;;;5031658;28;20047;-71
2022/06/10 05:45:24;;;;;;;7.18;6.68;;;;;;;;;;5048409;28;20043;-70
2022/06/10 05:47:51;;;;;;;8.98;6.43;;;;;;;;;;5049438;28;20527;-71
2022/06/10 05:50:25;;;;;;;12.35;5.97;;;;;;;;;;5014726;28;20560;-71
2022/06/10 05:52:51;;;;;;;7.13;5.88;;;;;;;;;;5049284;28;20052;-70
2022/06/10 05:55:18;;;;;;;6.63;5.90;;;;;;;;;;5048946;28;20147;-70
2022/06/10 05:57:44;;;;;;;6.43;6.03;;;;;;;;;;5031249;28;20094;-70
2022/06/10 06:00:13;;;;;;;7.28;6.30;;;;;;;;;;5049148;28;20044;-70
2022/06/10 06:02:40;;;;;;;7.32;6.47;;;;;;;;;;5049336;28;20530;-71
2022/06/10 06:05:09;;;;;;;6.35;5.85;;;;;;;;;;5049047;28;20040;-70
2022/06/10 06:07:36;;;;;;;6.50;5.85;;;;;;;;;;5031670;28;20098;-71
2022/06/10 06:10:02;;;;;;;7.60;5.75;;;;;;;;;;5031468;28;20040;-71
2022/06/10 06:12:29;;;;;;;7.50;5.88;;;;;;;;;;5049025;28;20052;-70
2022/06/10 06:14:54;;;;;;;7.55;7.00;;;;;;;;;;5048863;28;20381;-72
2022/06/10 06:17:21;;;;;;;6.82;6.43;;;;;;;;;;5049050;28;20048;-72
2022/06/10 06:19:47;;;;;;;9.95;7.10;;;;;;;;;;5031146;28;20044;-70
2022/06/10 06:22:13;;;;;;;10.52;6.50;;;;;;;;;;5047445;28;20056;-71
2022/06/10 06:24:39;;;;;;;7.45;6.68;;;;;;;;;;5048881;28;20060;-71
2022/06/10 06:27:06;;;;;;;7.38;6.78;;;;;;;;;;5030764;28;20045;-69
2022/06/10 06:29:32;;;;;;;7.40;6.70;;;;;;;;;;5014493;28;20136;-71
2022/06/10 06:31:58;;;;;;;7.75;7.00;;;;;;;;;;5048732;28;20143;-70
2022/06/10 06:34:24;;;;;;;7.35;6.57;;;;;;;;;;5048319;28;20136;-69
2022/06/10 06:36:51;;;;;;;6.78;6.28;;;;;;;;;;5048831;28;20195;-70
2022/06/10 06:39:17;;;;;;;6.45;5.85;;;;;;;;;;5030494;28;20133;-71
2022/06/10 06:41:43;;;;;;;7.57;6.70;;;;;;;;;;5030705;28;20045;-71
2022/06/10 06:44:09;;;;;;;7.43;6.82;;;;;;;;;;5048307;28;20448;-69
2022/06/10 06:46:36;;;;;;;7.38;6.75;;;;;;;;;;5048393;28;20047;-70
2022/06/10 06:49:02;;;;;;;7.47;6.97;;;;;;;;;;5048297;28;20040;-71
2022/06/10 06:51:28;;;;;;;9.35;6.75;;;;;;;;;;5048410;28;20045;-70
2022/06/10 06:53:54;;;;;;;7.78;6.82;;;;;;;;;;5048116;28;21019;-71
2022/06/10 06:56:19;;;;;;;12.10;6.75;;;;;;;;;;5030199;28;20063;-70
2022/06/10 06:58:45;;;;;;;7.57;7.07;;;;;;;;;;5048192;28;20075;-72
2022/06/10 07:01:11;;;;;;;7.63;7.10;;;;;;;;;;5047823;28;20090;-71
2022/06/10 07:03:37;;;;;;;8.75;8.02;;;;;;;;;;5048185;28;20040;-70
2022/06/10 07:06:03;;;;;;;8.52;7.60;;;;;;;;;;5048062;28;20048;-71
2022/06/10 07:08:32;;;;;;;9.10;7.10;;;;;;;;;;5047693;28;20049;-71
2022/06/10 07:10:58;;;;;;;7.93;7.22;;;;;;;;;;5047918;28;20048;-70
2022/06/10 07:13:24;;;;;;;5.60;5.18;;;;;;;;;;5047845;28;20087;-70
2022/06/10 07:15:50;;;;;;;9.50;6.50;;;;;;;;;;5029924;28;20509;-70
2022/06/10 07:18:17;;;;;;;6.70;6.20;;;;;;;;;;4997352;28;20499;-71
2022/06/10 07:20:44;;;;;;;7.40;6.80;;;;;;;;;;5047690;28;20041;-71
2022/06/10 07:23:10;;;;;;;7.93;7.22;;;;;;;;;;5047799;28;20045;-71
2022/06/10 07:25:36;;;;;;;6.75;6.28;;;;;;;;;;5047688;28;20190;-71
2022/06/10 07:28:02;;;;;;;6.78;6.10;;;;;;;;;;5047770;28;20056;-70
2022/06/10 07:30:29;;;;;;;5.53;5.00;;;;;;;;;;5047611;28;20575;-71
2022/06/10 07:32:55;;;;;;;6.38;5.90;;;;;;;;;;5047526;28;20096;-70
2022/06/10 07:35:21;;;;;;;6.20;5.70;;;;;;;;;;5047588;28;20068;-70
2022/06/10 07:37:47;;;;;;;6.45;6.00;;;;;;;;;;5013361;28;20052;-71
2022/06/10 07:43:02;;;;;;;8.37;5.97;;;;;;;;;;5047435;28;20041;-71
2022/06/10 07:45:28;;;;;;;6.63;6.03;;;;;;;;;;5047248;28;20275;-70
2022/06/10 07:47:54;;;;;;;9.88;6.60;;;;;;;;;;5047428;28;20413;-71
2022/06/10 07:50:23;;;;;;;6.35;5.95;;;;;;;;;;5047183;28;20120;-70
2022/06/10 07:52:49;;;;;;;7.27;6.77;;;;;;;;;;5047278;28;20061;-69
2022/06/10 07:55:16;;;;;;;6.32;5.90;;;;;;;;;;5046964;28;20057;-71
2022/06/10 07:57:42;;;;;;;7.45;5.85;;;;;;;;;;5029494;28;20126;-69
2022/06/10 08:00:10;;;;;;;6.28;5.72;;;;;;;;;;5047347;28;20076;-70
2022/06/10 08:02:38;;;;;;;7.63;5.85;;;;;;;;;;5029897;28;20638;-70
2022/06/10 08:05:05;;;;;;;6.85;6.35;;;;;;;;;;5029550;28;20638;-70
2022/06/10 08:07:31;;;;;;;8.05;5.65;;;;;;;;;;5048040;28;20037;-70
2022/06/10 08:09:57;;;;;;;10.82;6.57;;;;;;;;;;5033519;28;20041;-70
2022/06/10 08:12:23;;;;;;;6.88;6.28;;;;;;;;;;5033510;28;20060;-71
2022/06/10 08:14:49;;;;;;;7.55;6.80;;;;;;;;;;5033627;28;20056;-69
2022/06/10 08:17:15;;;;;;;10.82;6.30;;;;;;;;;;5051292;28;20504;-70
2022/06/10 08:19:41;;;;;;;5.45;5.05;;;;;;;;;;5051238;28;20037;-72
2022/06/10 08:24:52;;;;;;;7.15;6.35;;;;;;;;;;5051043;28;20118;-70
2022/06/10 08:27:17;;;;;;;7.03;6.43;;;;;;;;;;5051193;28;20080;-69
2022/06/10 08:29:44;;;;;;;6.95;6.28;;;;;;;;;;5050989;28;20052;-70
2022/06/10 08:32:10;;;;;;;6.25;5.85;;;;;;;;;;5050999;28;20125;-69
2022/06/10 08:34:36;;;;;;;10.10;6.18;;;;;;;;;;5016374;28;20520;-70
2022/06/10 08:37:02;;;;;;;9.00;6.53;;;;;;;;;;5033074;28;20044;-71
2022/06/10 08:39:29;;;;;;;6.75;6.13;;;;;;;;;;5050815;28;20045;-70
2022/06/10 08:42:09;;;;;;;6.63;6.07;;;;;;;;;;5050788;28;20048;-68
2022/06/10 08:44:44;;;;;;;5.90;5.50;;;;;;;;;;5050673;28;20173;-70
2022/06/10 08:47:20;;;;;;;5.85;5.38;;;;;;;;;;5051018;28;20048;-70
2022/06/10 08:50:06;;;;;;;7.32;6.70;;;;;;;;;;5032626;28;20397;-70
2022/06/10 08:52:36;;;;;;;7.30;6.70;;;;;;;;;;5050443;28;20521;-71
2022/06/10 08:55:15;;;;;;;9.15;6.55;;;;;;;;;;5032551;28;20111;-70
2022/06/10 08:57:41;;;;;;;5.88;5.47;;;;;;;;;;5050790;28;20087;-69
2022/06/10 09:00:10;;;;;;;6.35;5.72;;;;;;;;;;5032596;28;20413;-69
2022/06/10 09:02:38;;;;;;;6.70;6.30;;;;;;;;;;5050317;28;20045;-71
2022/06/10 09:05:13;;;;;;;7.18;6.47;;;;;;;;;;5050256;28;20379;-71
2022/06/10 09:07:43;;;;;;;6.18;5.68;;;;;;;;;;5050141;28;20083;-69
2022/06/10 09:10:30;;;;;;;5.72;5.32;;;;;;;;;;5032559;28;20048;-70
2022/06/10 09:13:15;;;;;;;11.40;6.20;;;;;;;;;;5049684;28;20053;-70
2022/06/10 09:15:58;;;;;;;6.88;6.13;;;;;;;;;;5032011;28;20049;-71
2022/06/10 09:18:33;;;;;;;6.63;6.05;;;;;;;;;;5032139;28;20427;-71
2022/06/10 09:21:19;;;;;;;5.63;5.32;;;;;;;;;;5032443;28;20044;-71
2022/06/10 09:23:46;;;;;;;9.48;6.40;;;;;;;;;;5049898;28;20045;-70
2022/06/10 09:26:17;;;;;;;6.97;6.40;;;;;;;;;;5032131;28;20124;-71
2022/06/10 09:28:43;;;;;;;6.30;5.90;;;;;;;;;;5032347;28;20416;-69
2022/06/10 09:31:21;;;;;;;5.07;4.32;;;;;;;;;;5049700;28;20040;-69
2022/06/10 09:33:57;;;;;;;6.60;6.00;;;;;;;;;;5032104;28;20055;-70
2022/06/10 09:36:34;;;;;;;6.30;5.70;;;;;;;;;;5015254;28;20048;-71
2022/06/10 09:39:02;;;;;;;6.88;6.15;;;;;;;;;;5050022;28;20037;-72
2022/06/10 09:41:34;;;;;;;6.82;5.60;;;;;;;;;;5049616;28;20068;-70
2022/06/10 09:44:18;;;;;;;6.20;5.70;;;;;;;;;;5031910;28;20488;-71
2022/06/10 09:46:49;;;;;;;6.35;5.80;;;;;;;;;;5049683;28;20059;-71
2022/06/10 09:49:27;;;;;;;6.30;5.70;;;;;;;;;;5049784;28;20045;-71
2022/06/10 09:52:01;;;;;;;6.00;5.00;;;;;;;;;;5049250;28;20052;-69
2022/06/10 09:54:36;;;;;;;5.50;5.00;;;;;;;;;;5049241;28;20057;-71
2022/06/10 09:57:10;;;;;;;5.40;4.97;;;;;;;;;;5049412;28;20049;-71
2022/06/10 09:59:55;;;;;;;6.53;5.30;;;;;;;;;;5031413;28;20048;-71
2022/06/10 10:02:21;;;;;;;5.40;5.03;;;;;;;;;;5049118;28;20037;-71
2022/06/10 10:04:56;;;;;;;5.97;4.93;;;;;;;;;;5049166;28;20524;-70
2022/06/10 10:07:29;;;;;;;5.60;5.10;;;;;;;;;;5049056;28;20036;-71
2022/06/10 10:10:15;;;;;;;5.35;4.95;;;;;;;;;;5048994;28;20063;-71
2022/06/10 10:13:09;;;;;;;5.95;5.35;;;;;;;;;;5048622;28;20138;-71
2022/06/10 10:15:55;;;;;;;5.30;4.90;;;;;;;;;;5011195;28;20417;-71
2022/06/10 10:18:47;;;;;;;4.60;4.40;;;;;;;;;;5048762;28;20060;-71
2022/06/10 10:21:14;;;;;;;4.63;4.32;;;;;;;;;;5044245;28;20180;-71
2022/06/10 10:23:42;;;;;;;5.50;4.47;;;;;;;;;;5048607;28;20136;-71
2022/06/10 10:26:12;;;;;;;8.68;4.82;;;;;;;;;;5048824;28;20618;-71
2022/06/10 10:28:39;;;;;;;;;;;;;;;;;;5031390;28;20044;-70
2022/06/10 10:31:20;;;;;;;4.47;4.18;;;;;;;;;;5048032;28;19912;-70
2022/06/10 10:33:46;;;;;;;5.22;4.63;;;;;;;;;;5030984;28;20045;-70
2022/06/10 10:36:32;;;;;;;6.05;4.85;;;;;;;;;;5048519;28;20148;-70
2022/06/10 10:38:59;;;;;;;4.70;4.40;;;;;;;;;;5048827;28;20045;-70
2022/06/10 10:41:25;;;;;;;5.45;5.05;;;;;;;;;;5030355;28;20047;-69
2022/06/10 10:43:52;;;;;;;4.65;4.25;;;;;;;;;;5030719;28;20063;-72
2022/06/10 10:46:29;;;;;;;6.22;4.43;;;;;;;;;;5048530;28;20068;-70
2022/06/10 10:48:57;;;;;;;4.88;4.00;;;;;;;;;;5048434;28;20421;-69
2022/06/10 10:51:29;;;;;;;6.03;4.40;;;;;;;;;;5030105;28;20056;-72
2022/06/10 10:53:56;;;;;;;8.82;4.07;;;;;;;;;;5010157;28;20057;-69
2022/06/10 10:56:30;;;;;;;5.00;4.47;;;;;;;;;;5010607;28;20048;-73
2022/06/10 10:58:56;;;;;;;4.50;4.20;;;;;;;;;;5028106;28;20502;-71
2022/06/10 11:01:54;;;;;;;3.75;3.55;;;;;;;;;;5028319;28;20045;-69
2022/06/10 11:04:27;;;;;;;4.07;3.88;;;;;;;;;;5005770;28;20460;-71
2022/06/10 11:07:00;;;;;;;5.18;3.97;;;;;;;;;;5028051;28;20489;-71
2022/06/10 11:09:26;;;;;;;4.32;4.10;;;;;;;;;;5028126;28;20482;-71
2022/06/10 11:11:52;;;;;;;4.07;3.85;;;;;;;;;;5028013;28;20136;-71
2022/06/10 11:14:51;;;;;;;3.72;3.42;;;;;;;;;;5010540;28;20140;-72
2022/06/10 11:17:20;;;;;;;4.75;4.30;;;;;;;;;;4994859;28;20049;-71
2022/06/10 11:19:46;;;;;;;4.00;3.13;;;;;;;;;;5010295;28;20067;-69
2022/06/10 11:22:20;;;;;;;5.03;4.20;;;;;;;;;;5027658;28;20112;-72
2022/06/10 11:24:46;;;;;;;4.93;4.50;;;;;;;;;;5027667;28;20037;-70
2022/06/10 11:27:20;;;;;;;5.07;3.42;;;;;;;;;;5027870;28;20087;-68
2022/06/10 11:30:16;;;;;;;5.47;4.43;;;;;;;;;;5027770;28;20389;-70
2022/06/10 11:32:48;;;;;;;4.28;3.83;;;;;;;;;;5014494;28;20049;-69
2022/06/10 11:35:20;;;;;;;5.75;4.75;;;;;;;;;;5027813;28;20071;-70
2022/06/10 11:37:46;;;;;;;6.43;4.78;;;;;;;;;;5027630;28;20041;-70
2022/06/10 11:40:36;;;;;;;4.78;4.38;;;;;;;;;;5010038;28;20041;-71
2022/06/10 11:43:12;;;;;;;7.55;4.63;;;;;;;;;;5018676;28;20046;-71
2022/06/10 11:45:43;;;;;;;4.95;4.60;;;;;;;;;;5027529;28;20127;-70
2022/06/10 11:48:18;;;;;;;5.93;4.68;;;;;;;;;;5027918;28;20125;-69
2022/06/10 11:51:16;;;;;;;6.10;4.63;;;;;;;;;;5009805;28;20045;-70
2022/06/10 11:53:50;;;;;;;5.43;4.68;;;;;;;;;;4995822;28;20057;-70
2022/06/10 12:01:59;;;;;;;6.53;3.92;;;;;;;;;;5047220;28;20045;-70
2022/06/10 12:04:27;;;;;;;6.75;4.70;;;;;;;;;;5047333;28;20037;-69
2022/06/10 12:06:54;;;;;;;4.78;4.40;;;;;;;;;;5029398;28;20037;-69
2022/06/10 12:09:32;;;;;;;4.85;4.03;;;;;;;;;;5029579;28;20049;-69
2022/06/10 12:12:24;;;;;;;4.50;4.30;;;;;;;;;;5047140;28;20056;-71
2022/06/10 12:14:51;;;;;;;4.13;3.75;;;;;;;;;;5042720;28;20037;-70
2022/06/10 12:17:20;;;;;;;4.32;3.90;;;;;;;;;;5029479;28;20049;-70
2022/06/10 12:19:47;;;;;;;4.28;3.92;;;;;;;;;;5029381;28;20054;-70
2022/06/10 12:22:13;;;;;;;7.18;4.40;;;;;;;;;;5047224;28;20040;-71
2022/06/10 12:24:39;;;;;;;4.47;4.18;;;;;;;;;;5047103;28;20137;-70
2022/06/10 12:27:06;;;;;;;4.20;4.00;;;;;;;;;;5029544;28;20535;-69
2022/06/10 12:29:38;;;;;;;4.50;4.20;;;;;;;;;;5046988;28;20410;-71
2022/06/10 12:32:07;;;;;;;4.47;4.00;;;;;;;;;;5029434;28;20063;-70
2022/06/10 12:34:36;;;;;;;4.60;4.28;;;;;;;;;;5029041;28;20048;-71
2022/06/10 12:37:04;;;;;;;4.80;4.00;;;;;;;;;;5046823;28;20045;-72
2022/06/10 12:39:31;;;;;;;4.13;3.80;;;;;;;;;;5029017;28;20033;-71
2022/06/10 12:42:04;;;;;;;4.93;4.22;;;;;;;;;;5029083;28;20045;-71
2022/06/10 12:44:31;;;;;;;4.40;4.10;;;;;;;;;;5029199;28;20056;-72
2022/06/10 12:46:58;;;;;;;3.30;3.00;;;;;;;;;;5012912;28;20048;-70
2022/06/10 12:49:40;;;;;;;3.83;3.63;;;;;;;;;;5029313;28;20047;-70
2022/06/10 12:52:10;;;;;;;4.03;3.80;;;;;;;;;;5028915;28;20144;-70
2022/06/10 12:54:37;;;;;;;4.57;4.20;;;;;;;;;;5048825;28;20139;-70
2022/06/10 12:57:21;;;;;;;7.13;4.28;;;;;;;;;;5050228;28;20052;-71
2022/06/10 12:59:47;;;;;;;4.40;4.00;;;;;;;;;;5032338;28;20048;-71
2022/06/10 13:02:31;;;;;;;6.38;4.00;;;;;;;;;;5050378;28;20049;-72
2022/06/10 13:04:58;;;;;;;4.78;4.38;;;;;;;;;;5050281;28;20063;-71
2022/06/10 13:07:25;;;;;;;7.57;4.70;;;;;;;;;;5050267;28;20052;-70
2022/06/10 13:09:52;;;;;;;9.57;4.70;;;;;;;;;;5050329;28;20090;-71
2022/06/10 13:12:33;;;;;;;4.13;3.78;;;;;;;;;;5050107;28;20053;-70
2022/06/10 13:15:13;;;;;;;8.35;4.63;;;;;;;;;;5032669;28;20090;-73
2022/06/10 13:17:38;;;;;;;;;;;;;;;;;;5050521;28;20582;-71
2022/06/10 13:20:11;;;;;;;5.32;3.58;;;;;;;;;;5050221;28;19913;-70
2022/06/10 13:22:37;;;;;;;4.30;3.95;;;;;;;;;;5031932;28;20048;-69
2022/06/10 13:25:07;;;;;;;4.30;4.00;;;;;;;;;;5049970;28;20033;-70
2022/06/10 13:27:35;;;;;;;6.90;4.20;;;;;;;;;;5049776;28;20053;-72
2022/06/10 13:30:03;;;;;;;4.75;4.05;;;;;;;;;;5049833;28;20045;-70
2022/06/10 13:32:29;;;;;;;5.20;4.20;;;;;;;;;;5049851;28;20052;-71
2022/06/10 13:34:56;;;;;;;8.15;3.80;;;;;;;;;;5031439;28;20041;-72
2022/06/10 13:37:24;;;;;;;4.22;3.92;;;;;;;;;;5049648;28;20044;-71
2022/06/10 13:39:51;;;;;;;5.40;3.70;;;;;;;;;;5049427;28;20059;-71
2022/06/10 13:42:22;;;;;;;5.70;4.13;;;;;;;;;;4998863;28;20037;-71
2022/06/10 13:44:49;;;;;;;6.38;4.25;;;;;;;;;;5049714;28;20107;-71
2022/06/10 13:47:20;;;;;;;8.98;4.45;;;;;;;;;;5031938;28;20039;-70
2022/06/10 13:52:43;;;;;;;4.30;3.97;;;;;;;;;;5049272;28;20428;-71
2022/06/10 13:55:18;;;;;;;10.88;4.10;;;;;;;;;;5049242;28;20083;-71
2022/06/10 13:57:45;;;;;;;5.15;3.90;;;;;;;;;;5049225;28;20048;-71
2022/06/10 14:00:19;;;;;;;5.60;3.80;;;;;;;;;;5031417;28;20037;-72
2022/06/10 14:02:45;;;;;;;5.95;3.90;;;;;;;;;;5049469;28;20041;-72
2022/06/10 14:05:15;;;;;;;5.05;3.50;;;;;;;;;;5031614;28;20204;-71
2022/06/10 14:07:41;;;;;;;8.60;3.88;;;;;;;;;;5031509;28;20068;-71
2022/06/10 14:10:18;;;;;;;4.38;3.58;;;;;;;;;;5049497;28;20033;-71
2022/06/10 14:12:54;;;;;;;3.70;3.50;;;;;;;;;;5048790;28;20052;-71
2022/06/10 14:15:20;;;;;;;8.60;4.13;;;;;;;;;;5049135;28;20041;-69
2022/06/10 14:17:47;;;;;;;9.27;4.20;;;;;;;;;;5047305;28;20045;-70
2022/06/10 14:20:13;;;;;;;14.73;4.30;;;;;;;;;;5049038;28;20044;-70
2022/06/10 14:22:39;;;;;;;6.38;3.97;;;;;;;;;;5014247;28;20040;-71
2022/06/10 14:25:14;;;;;;;11.45;4.47;;;;;;;;;;5048935;28;20045;-72
2022/06/10 14:27:41;;;;;;;8.82;4.07;;;;;;;;;;5048566;28;20494;-71
2022/06/10 14:30:14;;;;;;;3.95;3.65;;;;;;;;;;5030720;28;20079;-71
2022/06/10 14:32:42;;;;;;;4.95;4.03;;;;;;;;;;5048474;28;20040;-71
2022/06/10 14:35:26;;;;;;;4.75;4.18;;;;;;;;;;5030834;28;20045;-71
2022/06/10 14:38:03;;;;;;;13.93;4.97;;;;;;;;;;5048308;28;20033;-71
2022/06/10 14:40:29;;;;;;;11.10;4.18;;;;;;;;;;5048545;28;20044;-71
2022/06/10 14:43:14;;;;;;;5.45;3.70;;;;;;;;;;5048217;28;20051;-71
2022/06/10 14:45:41;;;;;;;11.75;4.22;;;;;;;;;;5048449;28;20071;-71
2022/06/10 14:48:09;;;;;;;6.63;4.10;;;;;;;;;;5030779;28;20033;-72
2022/06/10 14:50:38;;;;;;;9.38;3.95;;;;;;;;;;5048311;28;20049;-71
2022/06/10 14:53:04;;;;;;;;;;;;;;;;;;5030982;28;20110;-71
2022/06/10 14:55:32;;;;;;;10.15;4.15;;;;;;;;;;5048047;28;19921;-71
2022/06/10 14:58:02;;;;;;;7.47;4.40;;;;;;;;;;5030048;28;20057;-71
2022/06/10 15:00:29;;;;;;;10.25;4.07;;;;;;;;;;5048087;28;20189;-70
2022/06/10 15:02:55;;;;;;;10.88;4.25;;;;;;;;;;5047412;28;20532;-69
2022/06/10 15:08:06;;;;;;;5.63;3.83;;;;;;;;;;5047969;28;20527;-71
2022/06/10 15:10:33;;;;;;;6.07;4.07;;;;;;;;;;5048333;28;20047;-71
2022/06/10 15:12:59;;;;;;;7.60;4.13;;;;;;;;;;5029668;28;20055;-70
2022/06/10 15:15:25;;;;;;;11.25;3.72;;;;;;;;;;5047808;28;20123;-71